createdAt,value
2023-04-25T00:02:40.610Z,1.20
2023-04-25T00:07:33.992Z,1.25
2023-04-25T00:12:29.619Z,1.23
2023-04-25T00:17:23.612Z,1.13
2023-04-25T00:22:16.978Z,1.38
2023-04-25T00:27:10.170Z,1.30
2023-04-25T00:32:04.261Z,1.20
2023-04-25T00:36:58.039Z,1.30
2023-04-25T00:41:55.034Z,0.80
2023-04-25T00:46:50.992Z,1.00
2023-04-25T00:51:46.111Z,0.82
2023-04-25T00:56:39.208Z,1.05
2023-04-25T01:01:33.153Z,0.90
2023-04-25T01:06:25.834Z,1.10
2023-04-25T01:11:18.768Z,1.10
2023-04-25T01:16:12.743Z,1.00
2023-04-25T01:21:12.849Z,1.08
2023-04-25T01:26:05.325Z,0.98
2023-04-25T01:30:59.481Z,0.80
2023-04-25T01:35:52.033Z,0.90
2023-04-25T01:40:48.273Z,1.13
2023-04-25T01:45:43.096Z,0.75
2023-04-25T01:50:38.035Z,0.93
2023-04-25T01:55:31.311Z,0.80
2023-04-25T02:00:29.618Z,0.80
2023-04-25T02:05:24.215Z,0.90
2023-04-25T02:10:18.617Z,0.80
2023-04-25T02:15:29.829Z,1.00
2023-04-25T02:20:28.161Z,0.98
2023-04-25T02:25:23.468Z,0.70
2023-04-25T02:30:17.392Z,0.77
2023-04-25T02:35:10.850Z,0.70
2023-04-25T02:40:04.831Z,0.80
2023-04-25T02:44:57.783Z,0.70
2023-04-25T02:49:50.833Z,0.70
2023-04-25T02:54:43.146Z,1.08
2023-04-25T02:59:37.103Z,0.60
2023-04-25T03:04:31.018Z,1.17
2023-04-25T03:09:25.400Z,0.80
2023-04-25T03:14:18.801Z,0.77
2023-04-25T03:19:12.305Z,0.82
2023-04-25T03:24:06.178Z,0.77
2023-04-25T03:29:00.138Z,0.70
2023-04-25T03:33:54.745Z,0.80
2023-04-25T03:38:53.942Z,0.63
2023-04-25T03:43:48.031Z,0.77
2023-04-25T03:48:42.919Z,0.50
2023-04-25T03:53:39.693Z,0.60
2023-04-25T03:58:55.521Z,0.68
2023-04-25T04:03:51.065Z,0.77
2023-04-25T04:08:45.018Z,0.73
2023-04-25T04:13:38.250Z,0.70
2023-04-25T04:18:32.355Z,0.60
2023-04-25T04:23:25.530Z,0.60
2023-04-25T04:28:19.384Z,1.00
2023-04-25T04:33:24.619Z,0.70
2023-04-25T04:38:24.047Z,0.70
2023-04-25T04:43:20.822Z,0.60
2023-04-25T04:48:35.708Z,0.68
2023-04-25T04:53:47.002Z,0.60
2023-04-25T04:58:46.551Z,0.75
2023-04-25T05:04:04.789Z,0.68
2023-04-25T05:09:20.907Z,0.68
2023-04-25T05:14:48.660Z,0.47
2023-04-25T05:20:17.457Z,0.60
2023-04-25T05:25:40.610Z,0.77
2023-04-25T05:30:40.928Z,0.55
2023-04-25T05:35:42.111Z,0.63
2023-04-25T05:40:35.174Z,0.50
2023-04-25T05:46:00.497Z,0.80
2023-04-25T05:50:58.759Z,0.70
2023-04-25T05:56:27.227Z,0.40
2023-04-25T06:01:20.301Z,0.50
2023-04-25T06:06:17.136Z,0.70
2023-04-25T06:11:10.558Z,0.47
2023-04-25T06:16:04.160Z,0.50
2023-04-25T06:20:57.379Z,0.50
2023-04-25T06:25:51.502Z,0.90
2023-04-25T06:30:45.070Z,0.65
2023-04-25T06:35:43.061Z,1.05
2023-04-25T06:40:39.273Z,1.33
2023-04-25T06:45:34.877Z,1.80
2023-04-25T06:50:28.915Z,3.13
2023-04-25T06:55:21.872Z,1.70
2023-04-25T07:00:30.493Z,2.10
2023-04-25T07:05:24.353Z,2.05
2023-04-25T07:10:17.422Z,1.80
2023-04-25T07:15:13.524Z,1.42
2023-04-25T07:20:11.244Z,1.73
2023-04-25T07:25:05.735Z,1.52
2023-04-25T07:29:59.504Z,2.13
2023-04-25T07:34:52.570Z,1.40
2023-04-25T07:39:47.959Z,1.63
2023-04-25T07:44:41.999Z,1.50
2023-04-25T07:49:40.578Z,1.70
2023-04-25T07:54:33.124Z,1.40
2023-04-25T07:59:39.616Z,1.67
2023-04-25T08:04:32.251Z,1.40
2023-04-25T08:09:29.469Z,1.73
2023-04-25T08:14:24.513Z,1.65
2023-04-25T08:19:17.514Z,1.48
2023-04-25T08:24:12.083Z,1.10
2023-04-25T08:29:07.347Z,1.13
2023-04-25T08:34:01.740Z,1.10
2023-04-25T08:39:05.892Z,1.00
2023-04-25T08:44:06.294Z,0.95
2023-04-25T08:49:04.683Z,0.60
2023-04-25T08:54:06.410Z,0.63
2023-04-25T08:59:04.299Z,0.60
2023-04-25T09:03:59.565Z,0.60
2023-04-25T09:08:53.588Z,0.60
2023-04-25T09:13:48.341Z,0.47
2023-04-25T09:18:54.771Z,0.63
2023-04-25T09:23:50.388Z,0.40
2023-04-25T09:28:44.691Z,0.30
2023-04-25T09:33:37.974Z,1.33
2023-04-25T09:38:34.334Z,0.32
2023-04-25T09:43:36.986Z,0.20
2023-04-25T09:48:31.180Z,0.38
2023-04-25T09:53:29.066Z,0.30
2023-04-25T09:58:43.934Z,0.90
2023-04-25T10:03:39.414Z,0.38
2023-04-25T10:08:57.391Z,0.80
2023-04-25T10:13:53.080Z,0.75
2023-04-25T10:18:47.233Z,0.77
2023-04-25T10:23:43.142Z,1.23
2023-04-25T10:28:57.071Z,1.40
2023-04-25T10:33:50.126Z,1.40
2023-04-25T10:38:48.253Z,0.90
2023-04-25T10:43:48.506Z,1.13
2023-04-25T10:48:51.648Z,1.15
2023-04-25T10:53:51.118Z,1.20
2023-04-25T10:58:52.194Z,1.20
2023-04-25T11:04:04.377Z,1.20
2023-04-25T11:09:04.217Z,0.80
2023-04-25T11:14:05.500Z,1.00
2023-04-25T11:19:07.007Z,0.80
2023-04-25T11:24:04.164Z,1.02
2023-04-25T11:29:07.517Z,1.20
2023-04-25T11:34:08.296Z,0.55
2023-04-25T11:39:08.801Z,1.20
2023-04-25T11:44:08.825Z,0.82
2023-04-25T11:54:08.275Z,1.00
2023-04-25T11:59:10.780Z,0.80
2023-04-25T12:04:24.536Z,1.25
2023-04-25T12:09:25.260Z,0.80
2023-04-25T12:14:30.554Z,0.75
2023-04-25T12:19:25.184Z,1.20
2023-04-25T12:24:29.364Z,0.95
2023-04-25T12:29:29.565Z,1.02
2023-04-25T12:34:28.600Z,0.85
2023-04-25T12:39:25.652Z,0.75
2023-04-25T12:44:21.833Z,0.80
2023-04-25T12:49:19.507Z,0.60
2023-04-25T12:54:17.060Z,0.70
2023-04-25T12:59:10.949Z,0.60
2023-04-25T13:04:07.845Z,0.68
2023-04-25T13:09:05.500Z,0.57
2023-04-25T13:14:00.884Z,1.33
2023-04-25T13:18:58.946Z,0.60
2023-04-25T13:23:51.736Z,0.82
2023-04-25T13:28:46.611Z,0.75
2023-04-25T13:33:39.449Z,1.10
2023-04-25T13:38:33.481Z,0.70
2023-04-25T13:43:27.728Z,0.43
2023-04-25T13:48:22.111Z,0.50
2023-04-25T13:53:15.577Z,0.80
2023-04-25T13:58:11.135Z,0.50
2023-04-25T14:03:09.316Z,0.80
2023-04-25T14:08:03.276Z,0.47
2023-04-25T14:13:01.736Z,0.57
2023-04-25T14:17:54.920Z,0.82
2023-04-25T14:22:48.816Z,0.65
2023-04-25T14:27:42.372Z,1.10
2023-04-25T14:32:36.104Z,0.95
2023-04-25T14:37:30.438Z,1.00
2023-04-25T14:42:23.862Z,1.77
2023-04-25T14:47:18.583Z,1.00
2023-04-25T14:52:12.861Z,1.60
2023-04-25T14:57:06.932Z,1.52
2023-04-25T15:02:01.823Z,1.05
2023-04-25T15:06:55.645Z,1.52
2023-04-25T15:11:49.043Z,1.35
2023-04-25T15:16:42.206Z,1.40
2023-04-25T15:21:36.422Z,1.63
2023-04-25T15:26:29.985Z,1.50
2023-04-25T15:31:23.613Z,1.92
2023-04-25T15:36:18.488Z,2.60
2023-04-25T15:41:11.693Z,2.83
2023-04-25T15:46:06.979Z,2.45
2023-04-25T15:51:00.958Z,3.10
2023-04-25T15:55:53.750Z,2.80
2023-04-25T16:00:49.219Z,3.25
2023-04-25T16:05:41.986Z,2.53
2023-04-25T16:10:35.575Z,1.75
2023-04-25T16:15:29.054Z,1.90
2023-04-25T16:20:23.038Z,2.05
2023-04-25T16:25:16.798Z,1.77
2023-04-25T16:30:11.060Z,1.48
2023-04-25T16:35:03.976Z,2.00
2023-04-25T16:40:01.034Z,1.38
2023-04-25T16:44:57.851Z,1.00
2023-04-25T16:49:51.221Z,1.10
2023-04-25T16:54:44.946Z,0.90
2023-04-25T16:59:38.827Z,1.58
2023-04-25T17:04:32.218Z,1.67
2023-04-25T17:09:27.166Z,1.95
2023-04-25T17:14:21.705Z,2.08
2023-04-25T17:19:14.738Z,1.98
2023-04-25T17:24:09.987Z,2.00
2023-04-25T17:29:03.830Z,2.15
2023-04-25T17:33:58.759Z,2.40
2023-04-25T17:38:52.213Z,25.98
2023-04-25T17:43:47.387Z,36.60
2023-04-25T17:48:40.624Z,33.28
2023-04-25T17:53:33.613Z,30.35
2023-04-25T17:58:28.146Z,24.58
2023-04-25T18:03:22.389Z,21.92
2023-04-25T18:08:16.239Z,19.40
2023-04-25T18:13:10.096Z,19.98
2023-04-25T18:18:14.725Z,17.35
2023-04-25T18:23:12.376Z,15.43
2023-04-25T18:28:06.122Z,13.70
2023-04-25T18:33:00.210Z,13.43
2023-04-25T18:37:53.840Z,9.10
2023-04-25T18:42:47.346Z,8.63
2023-04-25T18:47:41.413Z,7.78
2023-04-25T18:52:34.742Z,9.20
2023-04-25T18:57:28.129Z,10.07
2023-04-25T19:02:23.537Z,9.65
2023-04-25T19:07:16.924Z,9.80
2023-04-25T19:12:10.597Z,8.18
2023-04-25T19:17:05.043Z,10.50
2023-04-25T19:21:59.200Z,8.63
2023-04-25T19:26:53.567Z,8.68
2023-04-25T19:31:47.948Z,7.15
2023-04-25T19:36:43.263Z,5.35
2023-04-25T19:41:39.100Z,4.10
2023-04-25T19:46:32.672Z,4.03
2023-04-25T19:51:25.527Z,3.80
2023-04-25T19:56:18.972Z,3.55
2023-04-25T20:01:13.174Z,4.63
2023-04-25T20:06:06.783Z,4.97
2023-04-25T20:10:59.663Z,5.43
2023-04-25T20:15:53.063Z,4.75
2023-04-25T20:20:50.830Z,4.45
2023-04-25T20:25:48.845Z,4.65
2023-04-25T20:30:45.332Z,4.13
2023-04-25T20:35:38.695Z,4.00
2023-04-25T20:40:32.468Z,3.65
2023-04-25T20:45:29.992Z,3.53
2023-04-25T20:50:22.997Z,3.78
2023-04-25T20:55:16.208Z,3.63
2023-04-25T21:00:26.912Z,3.47
2023-04-25T21:05:22.391Z,3.30
2023-04-25T21:10:16.472Z,3.17
2023-04-25T21:15:13.111Z,3.15
2023-04-25T21:20:11.153Z,3.10
2023-04-25T21:25:07.677Z,3.20
2023-04-25T21:30:01.379Z,2.88
2023-04-25T21:34:56.030Z,3.03
2023-04-25T21:39:48.852Z,3.38
2023-04-25T21:44:43.613Z,3.30
2023-04-25T21:49:35.945Z,3.00
2023-04-25T21:54:29.463Z,2.97
2023-04-25T21:59:25.616Z,3.38
2023-04-25T22:04:19.137Z,3.30
2023-04-25T22:09:13.290Z,2.90
2023-04-25T22:14:07.488Z,2.92
2023-04-25T22:19:01.390Z,3.20
2023-04-25T22:23:55.253Z,2.58
2023-04-25T22:28:48.427Z,3.28
2023-04-25T22:33:42.454Z,3.03
2023-04-25T22:38:35.264Z,3.40
2023-04-25T22:43:30.275Z,2.72
2023-04-25T22:48:23.866Z,3.00
2023-04-25T22:53:17.297Z,3.05
2023-04-25T22:58:10.566Z,2.80
2023-04-25T23:03:04.980Z,2.97
2023-04-25T23:07:59.120Z,3.08
2023-04-25T23:12:53.053Z,3.15
2023-04-25T23:17:46.740Z,3.00
2023-04-25T23:22:40.179Z,2.80
2023-04-25T23:27:33.871Z,2.85
2023-04-25T23:32:27.254Z,2.78
2023-04-25T23:37:20.735Z,2.75
2023-04-25T23:42:13.460Z,3.10
2023-04-25T23:47:07.765Z,2.85
2023-04-25T23:52:01.832Z,2.90
2023-04-25T23:56:59.702Z,3.17
